createdAt,value
2018-07-01T00:00:36.186Z,17.27
2018-07-01T00:01:36.214Z,17.32
2018-07-01T00:02:36.776Z,17.27
2018-07-01T00:03:36.282Z,17.17
2018-07-01T00:04:36.304Z,17.19
2018-07-01T00:05:57.389Z,17.19
2018-07-01T00:06:36.355Z,17.14
2018-07-01T00:07:36.379Z,17.16
2018-07-01T00:08:36.556Z,17.13
2018-07-01T00:09:36.436Z,17.02
2018-07-01T00:10:36.471Z,17.04
2018-07-01T00:11:57.516Z,17.13
2018-07-01T00:12:36.544Z,17.04
2018-07-01T00:13:36.593Z,17.07
2018-07-01T00:14:36.570Z,17.04
2018-07-01T00:15:36.601Z,17.19
2018-07-01T00:16:36.624Z,17.17
2018-07-01T00:17:57.684Z,16.99
2018-07-01T00:18:36.703Z,17.04
2018-07-01T00:19:36.811Z,17.05
2018-07-01T00:20:36.747Z,17.04
2018-07-01T00:21:36.829Z,16.98
2018-07-01T00:22:36.829Z,17.01
2018-07-01T00:23:58.152Z,17.01
2018-07-01T00:24:36.847Z,16.97
2018-07-01T00:25:36.894Z,16.97
2018-07-01T00:26:36.901Z,16.91
2018-07-01T00:27:37.457Z,16.91
2018-07-01T00:28:36.989Z,16.87
2018-07-01T00:29:58.082Z,16.94
2018-07-01T00:30:37.053Z,16.95
2018-07-01T00:31:37.035Z,16.95
2018-07-01T00:32:37.074Z,16.92
2018-07-01T00:33:37.103Z,16.89
2018-07-01T00:34:37.125Z,16.83
2018-07-01T00:35:58.168Z,16.95
2018-07-01T00:36:37.171Z,16.82
2018-07-01T00:37:37.328Z,16.82
2018-07-01T00:38:37.252Z,16.83
2018-07-01T00:39:37.354Z,16.82
2018-07-01T00:40:37.297Z,16.77
2018-07-01T00:41:58.337Z,16.80
2018-07-01T00:42:37.343Z,16.79
2018-07-01T00:43:37.390Z,16.92
2018-07-01T00:44:37.401Z,16.89
2018-07-01T00:45:37.435Z,16.84
2018-07-01T00:46:37.445Z,16.80
2018-07-01T00:47:58.535Z,16.77
2018-07-01T00:48:37.533Z,16.76
2018-07-01T00:49:37.538Z,16.77
2018-07-01T00:50:37.570Z,16.87
2018-07-01T00:51:37.582Z,16.87
2018-07-01T00:52:37.642Z,16.82
2018-07-01T00:53:58.671Z,16.82
2018-07-01T00:54:37.672Z,16.77
2018-07-01T00:55:37.711Z,16.73
2018-07-01T00:56:37.723Z,16.73
2018-07-01T00:57:37.768Z,16.66
2018-07-01T00:58:37.781Z,16.66
2018-07-01T00:59:58.913Z,16.73
2018-07-01T01:00:37.845Z,16.69
2018-07-01T01:01:37.900Z,16.77
2018-07-01T01:02:37.904Z,16.77
2018-07-01T01:03:37.915Z,16.79
2018-07-01T01:04:37.946Z,16.83
2018-07-01T01:05:58.987Z,16.74
2018-07-01T01:06:37.997Z,16.76
2018-07-01T01:07:38.040Z,16.68
2018-07-01T01:08:38.058Z,16.79
2018-07-01T01:09:38.088Z,16.68
2018-07-01T01:10:38.148Z,16.69
2018-07-01T01:11:59.162Z,16.64
2018-07-01T01:12:38.445Z,16.65
2018-07-01T01:13:38.198Z,16.69
2018-07-01T01:14:38.229Z,16.69
2018-07-01T01:15:38.256Z,16.62
2018-07-01T01:16:38.274Z,16.55
2018-07-01T01:17:59.335Z,16.57
2018-07-01T01:18:38.329Z,16.54
2018-07-01T01:19:38.362Z,16.66
2018-07-01T01:20:38.399Z,16.61
2018-07-01T01:21:38.528Z,16.51
2018-07-01T01:22:38.451Z,16.57
2018-07-01T01:23:59.493Z,16.51
2018-07-01T01:24:38.569Z,16.49
2018-07-01T01:25:38.520Z,16.36
2018-07-01T01:26:38.552Z,16.39
2018-07-01T01:27:38.620Z,16.36
2018-07-01T01:28:38.604Z,16.44
2018-07-01T01:29:59.658Z,16.46
2018-07-01T01:30:38.656Z,16.43
2018-07-01T01:31:38.685Z,16.43
2018-07-01T01:32:38.810Z,16.44
2018-07-01T01:33:38.739Z,16.36
2018-07-01T01:34:39.039Z,16.26
2018-07-01T01:35:59.828Z,16.25
2018-07-01T01:36:38.820Z,16.34
2018-07-01T01:37:38.855Z,16.31
2018-07-01T01:38:38.872Z,16.21
2018-07-01T01:39:38.913Z,16.13
2018-07-01T01:40:38.930Z,16.16
2018-07-01T01:41:59.990Z,16.09
2018-07-01T01:42:38.989Z,16.17
2018-07-01T01:43:39.017Z,16.09
2018-07-01T01:44:39.060Z,16.13
2018-07-01T01:45:39.083Z,16.09
2018-07-01T01:46:39.111Z,16.16
2018-07-01T01:48:00.139Z,16.09
2018-07-01T01:48:39.147Z,16.09
2018-07-01T01:49:39.187Z,16.13
2018-07-01T01:50:39.207Z,15.99
2018-07-01T01:51:39.241Z,16.06
2018-07-01T01:52:39.251Z,16.17
2018-07-01T01:54:00.450Z,16.06
2018-07-01T01:54:39.331Z,16.08
2018-07-01T01:55:39.369Z,16.21
2018-07-01T01:56:39.370Z,16.17
2018-07-01T01:57:40.361Z,16.16
2018-07-01T01:58:39.423Z,16.16
2018-07-01T02:00:00.469Z,16.08
2018-07-01T02:00:39.482Z,16.10
2018-07-01T02:01:39.515Z,16.13
2018-07-01T02:02:39.545Z,16.09
2018-07-01T02:03:39.562Z,16.12
2018-07-01T02:04:39.613Z,16.10
2018-07-01T02:06:00.647Z,16.17
2018-07-01T02:06:39.651Z,16.10
2018-07-01T02:07:39.850Z,16.03
2018-07-01T02:08:39.706Z,16.03
2018-07-01T02:09:39.743Z,16.00
2018-07-01T02:10:39.751Z,16.12
2018-07-01T02:12:00.892Z,16.12
2018-07-01T02:12:39.808Z,16.16
2018-07-01T02:13:39.842Z,16.18
2018-07-01T02:14:39.917Z,16.16
2018-07-01T02:15:39.888Z,16.18
2018-07-01T02:16:39.917Z,16.12
2018-07-01T02:18:00.968Z,16.09
2018-07-01T02:18:39.986Z,16.00
2018-07-01T02:19:39.993Z,16.03
2018-07-01T02:20:40.036Z,15.98
2018-07-01T02:21:40.047Z,16.08
2018-07-01T02:22:40.082Z,16.10
2018-07-01T02:24:01.148Z,16.12
2018-07-01T02:24:40.133Z,16.05
2018-07-01T02:25:40.227Z,16.10
2018-07-01T02:26:40.177Z,16.12
2018-07-01T02:27:40.249Z,16.09
2018-07-01T02:28:40.237Z,16.05
2018-07-01T02:30:01.295Z,16.03
2018-07-01T02:30:40.349Z,16.02
2018-07-01T02:31:40.317Z,16.08
2018-07-01T02:32:40.356Z,16.05
2018-07-01T02:33:40.368Z,15.96
2018-07-01T02:34:40.408Z,16.05
2018-07-01T02:36:01.444Z,15.94
2018-07-01T02:36:40.565Z,15.98
2018-07-01T02:37:40.497Z,15.98
2018-07-01T02:38:40.568Z,15.99
2018-07-01T02:39:40.543Z,15.94
2018-07-01T02:40:40.571Z,15.98
2018-07-01T02:42:01.617Z,15.90
2018-07-01T02:42:40.629Z,15.88
2018-07-01T02:43:40.643Z,15.91
2018-07-01T02:44:40.671Z,15.91
2018-07-01T02:45:40.706Z,15.94
2018-07-01T02:46:40.726Z,15.87
2018-07-01T02:48:01.857Z,15.85
2018-07-01T02:48:40.775Z,15.81
2018-07-01T02:49:40.816Z,15.78
2018-07-01T02:50:40.843Z,15.73
2018-07-01T02:51:40.867Z,15.80
2018-07-01T02:52:40.904Z,15.81
2018-07-01T02:54:01.953Z,15.78
2018-07-01T02:54:41.002Z,15.80
2018-07-01T02:55:40.984Z,15.84
2018-07-01T02:56:41.002Z,15.76
2018-07-01T02:57:41.042Z,15.88
2018-07-01T02:58:41.086Z,15.87
2018-07-01T03:00:02.108Z,15.90
2018-07-01T03:00:41.161Z,15.85
2018-07-01T03:01:41.142Z,15.88
2018-07-01T03:02:41.163Z,15.84
2018-07-01T03:03:41.280Z,15.70
2018-07-01T03:04:41.257Z,15.84
2018-07-01T03:06:02.258Z,15.81
2018-07-01T03:06:41.361Z,15.84
2018-07-01T03:07:41.295Z,15.88
2018-07-01T03:08:41.348Z,15.88
2018-07-01T03:09:41.372Z,15.91
2018-07-01T03:10:41.720Z,15.94
2018-07-01T03:12:03.616Z,15.84
2018-07-01T03:12:41.793Z,15.88
2018-07-01T03:13:41.749Z,15.90
2018-07-01T03:14:42.053Z,15.76
2018-07-01T03:15:41.566Z,15.91
2018-07-01T03:16:42.285Z,15.76
2018-07-01T03:18:02.842Z,15.91
2018-07-01T03:18:41.642Z,15.83
2018-07-01T03:19:41.640Z,15.87
2018-07-01T03:20:41.646Z,15.87
2018-07-01T03:21:41.668Z,15.83
2018-07-01T03:22:41.701Z,15.78
2018-07-01T03:24:02.762Z,15.81
2018-07-01T03:24:41.742Z,15.87
2018-07-01T03:25:41.787Z,15.80
2018-07-01T03:26:42.051Z,15.87
2018-07-01T03:27:41.840Z,15.80
2018-07-01T03:28:41.900Z,15.88
2018-07-01T03:30:02.911Z,15.84
2018-07-01T03:30:41.920Z,15.88
2018-07-01T03:31:41.934Z,15.88
2018-07-01T03:32:41.974Z,15.88
2018-07-01T03:33:42.018Z,15.87
2018-07-01T03:34:42.028Z,15.88
2018-07-01T03:36:03.081Z,15.92
2018-07-01T03:36:42.458Z,15.91
2018-07-01T03:37:42.112Z,15.90
2018-07-01T03:38:42.294Z,15.88
2018-07-01T03:39:42.158Z,15.90
2018-07-01T03:40:42.403Z,15.83
2018-07-01T03:42:03.234Z,15.92
2018-07-01T03:42:42.283Z,15.91
2018-07-01T03:43:42.258Z,15.98
2018-07-01T03:44:42.297Z,15.91
2018-07-01T03:45:42.321Z,16.03
2018-07-01T03:46:42.356Z,15.98
2018-07-01T03:48:03.392Z,16.02
2018-07-01T03:48:42.400Z,16.02
2018-07-01T03:49:43.021Z,15.92
2018-07-01T03:50:42.452Z,15.94
2018-07-01T03:51:42.485Z,15.91
2018-07-01T03:52:42.522Z,15.99
2018-07-01T03:54:03.568Z,16.06
2018-07-01T03:54:42.561Z,16.03
2018-07-01T03:55:42.592Z,16.02
2018-07-01T03:56:42.623Z,16.00
2018-07-01T03:57:42.682Z,16.03
2018-07-01T03:58:42.673Z,16.08
2018-07-01T04:00:03.719Z,16.02
2018-07-01T04:00:42.818Z,16.03
2018-07-01T04:01:42.772Z,15.98
2018-07-01T04:02:42.813Z,15.98
2018-07-01T04:03:42.810Z,16.06
2018-07-01T04:04:42.829Z,16.00
2018-07-01T04:06:03.883Z,16.08
2018-07-01T04:06:42.895Z,16.10
2018-07-01T04:07:42.936Z,16.06
2018-07-01T04:08:42.944Z,16.09
2018-07-01T04:09:42.963Z,16.12
2018-07-01T04:10:43.002Z,16.13
2018-07-01T04:12:04.039Z,16.16
2018-07-01T04:12:43.050Z,16.12
2018-07-01T04:13:43.096Z,16.18
2018-07-01T04:14:43.104Z,16.10
2018-07-01T04:15:43.133Z,16.16
2018-07-01T04:16:43.150Z,16.17
2018-07-01T04:18:04.213Z,16.29
2018-07-01T04:18:43.569Z,16.16
2018-07-01T04:19:43.236Z,16.24
2018-07-01T04:20:43.261Z,16.26
2018-07-01T04:21:43.285Z,16.29
2018-07-01T04:22:43.315Z,16.46
2018-07-01T04:24:04.439Z,16.36
2018-07-01T04:24:43.383Z,16.36
2018-07-01T04:25:43.419Z,16.36
2018-07-01T04:26:43.429Z,16.37
2018-07-01T04:27:43.461Z,16.39
2018-07-01T04:28:43.494Z,16.43
2018-07-01T04:30:04.523Z,16.55
2018-07-01T04:30:43.540Z,16.55
2018-07-01T04:31:43.566Z,16.66
2018-07-01T04:32:43.605Z,16.69
2018-07-01T04:33:43.614Z,16.68
2018-07-01T04:34:43.641Z,16.76
2018-07-01T04:36:04.695Z,16.82
2018-07-01T04:36:43.704Z,16.80
2018-07-01T04:37:43.736Z,16.82
2018-07-01T04:38:43.840Z,16.74
2018-07-01T04:39:43.779Z,16.79
2018-07-01T04:40:43.816Z,16.86
2018-07-01T04:42:04.953Z,16.89
2018-07-01T04:42:43.913Z,16.84
2018-07-01T04:43:43.882Z,16.89
2018-07-01T04:44:43.920Z,16.89
2018-07-01T04:45:43.945Z,16.95
2018-07-01T04:46:43.976Z,16.99
2018-07-01T04:48:05.039Z,17.05
2018-07-01T04:48:44.054Z,17.16
2018-07-01T04:49:44.062Z,17.14
2018-07-01T04:50:44.083Z,17.16
2018-07-01T04:51:44.113Z,17.17
2018-07-01T04:52:44.124Z,17.17
2018-07-01T04:54:05.194Z,17.17
2018-07-01T04:54:44.184Z,17.10
2018-07-01T04:55:44.274Z,17.20
2018-07-01T04:56:44.282Z,17.28
2018-07-01T04:57:44.282Z,17.27
2018-07-01T04:58:44.301Z,17.27
2018-07-01T05:00:05.351Z,17.27
2018-07-01T05:00:44.353Z,17.16
2018-07-01T05:01:44.449Z,17.22
2018-07-01T05:02:44.398Z,17.19
2018-07-01T05:03:44.438Z,17.20
2018-07-01T05:04:44.579Z,17.10
2018-07-01T05:06:05.530Z,17.13
2018-07-01T05:06:44.557Z,17.22
2018-07-01T05:07:44.537Z,17.27
2018-07-01T05:08:44.572Z,17.30
2018-07-01T05:09:44.589Z,17.23
2018-07-01T05:10:44.632Z,17.35
2018-07-01T05:12:05.665Z,17.42
2018-07-01T05:12:44.682Z,17.32
2018-07-01T05:13:44.722Z,17.34
2018-07-01T05:14:44.729Z,17.44
2018-07-01T05:15:44.909Z,17.28
2018-07-01T05:16:44.794Z,17.38
2018-07-01T05:18:05.839Z,17.28
2018-07-01T05:18:44.847Z,17.37
2018-07-01T05:19:44.878Z,17.39
2018-07-01T05:20:44.900Z,17.39
2018-07-01T05:21:44.938Z,17.50
2018-07-01T05:22:44.968Z,17.46
2018-07-01T05:24:06.026Z,17.49
2018-07-01T05:24:45.010Z,17.50
2018-07-01T05:25:45.045Z,17.54
2018-07-01T05:26:45.074Z,17.53
2018-07-01T05:27:45.103Z,17.47
2018-07-01T05:28:45.126Z,17.41
2018-07-01T05:30:06.169Z,17.59
2018-07-01T05:30:45.215Z,17.52
2018-07-01T05:31:45.224Z,17.59
2018-07-01T05:32:45.317Z,17.69
2018-07-01T05:33:45.272Z,17.59
2018-07-01T05:34:45.269Z,17.65
2018-07-01T05:36:06.344Z,17.68
2018-07-01T05:36:45.344Z,17.71
2018-07-01T05:37:45.362Z,17.69
2018-07-01T05:38:45.394Z,17.75
2018-07-01T05:39:45.413Z,17.72
2018-07-01T05:40:45.451Z,17.73
2018-07-01T05:42:06.980Z,17.68
2018-07-01T05:42:45.509Z,17.69
2018-07-01T05:43:45.539Z,17.69
2018-07-01T05:44:45.556Z,17.84
2018-07-01T05:45:45.591Z,17.79
2018-07-01T05:46:45.657Z,17.84
2018-07-01T05:48:06.665Z,17.88
2018-07-01T05:48:45.676Z,17.90
2018-07-01T05:49:45.701Z,18.12
2018-07-01T05:50:45.728Z,18.06
2018-07-01T05:51:45.923Z,18.03
2018-07-01T05:52:45.779Z,18.05
2018-07-01T05:54:06.841Z,18.06
2018-07-01T05:54:45.849Z,18.06
2018-07-01T05:55:45.898Z,18.02
2018-07-01T05:56:45.901Z,17.97
2018-07-01T05:57:45.919Z,18.15
2018-07-01T05:58:45.950Z,18.09
2018-07-01T06:00:06.991Z,18.21
2018-07-01T06:00:46.003Z,18.23
2018-07-01T06:01:46.021Z,18.21
2018-07-01T06:02:46.054Z,18.18
2018-07-01T06:03:46.079Z,18.26
2018-07-01T06:04:46.107Z,18.19
2018-07-01T06:06:07.166Z,18.28
2018-07-01T06:06:46.177Z,18.31
2018-07-01T06:07:46.194Z,18.33
2018-07-01T06:08:46.290Z,18.31
2018-07-01T06:09:46.277Z,18.28
2018-07-01T06:10:46.284Z,18.31
2018-07-01T06:12:07.324Z,18.45
2018-07-01T06:12:46.333Z,18.52
2018-07-01T06:13:46.371Z,18.46
2018-07-01T06:14:46.406Z,18.55
2018-07-01T06:15:46.421Z,18.53
2018-07-01T06:16:46.474Z,18.57
2018-07-01T06:18:07.487Z,18.45
2018-07-01T06:18:46.539Z,18.55
2018-07-01T06:19:47.066Z,18.60
2018-07-01T06:20:46.558Z,18.64
2018-07-01T06:21:46.603Z,18.63
2018-07-01T06:22:46.635Z,18.66
2018-07-01T06:24:07.664Z,18.66
2018-07-01T06:24:46.664Z,18.67
2018-07-01T06:25:46.704Z,18.63
2018-07-01T06:26:46.729Z,18.67
2018-07-01T06:27:46.746Z,18.71
2018-07-01T06:28:46.825Z,18.78
2018-07-01T06:30:07.821Z,18.73
2018-07-01T06:30:46.839Z,18.68
2018-07-01T06:31:46.861Z,18.68
2018-07-01T06:32:46.905Z,18.85
2018-07-01T06:33:46.920Z,18.78
2018-07-01T06:34:46.951Z,18.74
2018-07-01T06:36:07.985Z,18.81
2018-07-01T06:36:47.024Z,18.83
2018-07-01T06:37:47.023Z,18.88
2018-07-01T06:38:47.061Z,18.88
2018-07-01T06:39:47.094Z,18.94
2018-07-01T06:40:47.117Z,18.86
2018-07-01T06:42:08.153Z,18.78
2018-07-01T06:42:47.185Z,18.67
2018-07-01T06:43:48.060Z,18.74
2018-07-01T06:44:47.238Z,18.70
2018-07-01T06:45:47.246Z,18.76
2018-07-01T06:46:47.301Z,18.66
2018-07-01T06:48:08.349Z,18.66
2018-07-01T06:48:47.347Z,18.74
2018-07-01T06:49:47.369Z,18.71
2018-07-01T06:50:47.383Z,18.78
2018-07-01T06:51:47.424Z,18.74
2018-07-01T06:52:47.459Z,18.76
2018-07-01T06:54:08.499Z,18.71
2018-07-01T06:54:47.516Z,18.76
2018-07-01T06:55:47.557Z,18.74
2018-07-01T06:56:47.565Z,18.73
2018-07-01T06:57:47.602Z,18.74
2018-07-01T06:58:47.622Z,18.67
2018-07-01T07:00:08.667Z,18.64
2018-07-01T07:00:47.665Z,18.71
2018-07-01T07:01:47.706Z,18.64
2018-07-01T07:02:47.730Z,18.63
2018-07-01T07:03:47.746Z,18.71
2018-07-01T07:04:47.789Z,18.70
2018-07-01T07:06:08.831Z,18.82
2018-07-01T07:06:47.844Z,18.89
2018-07-01T07:07:47.876Z,19.04
2018-07-01T07:08:47.904Z,19.08
2018-07-01T07:09:47.931Z,19.00
2018-07-01T07:10:47.948Z,19.23
2018-07-01T07:12:09.612Z,19.19
2018-07-01T07:12:48.013Z,19.22
2018-07-01T07:13:48.030Z,19.11
2018-07-01T07:14:48.047Z,19.11
2018-07-01T07:15:48.089Z,19.05
2018-07-01T07:16:48.130Z,18.96
2018-07-01T07:18:09.159Z,18.88
2018-07-01T07:18:48.235Z,18.85
2018-07-01T07:19:48.210Z,18.96
2018-07-01T07:20:48.222Z,19.04
2018-07-01T07:21:48.276Z,19.16
2018-07-01T07:22:48.271Z,19.24
2018-07-01T07:24:09.337Z,19.29
2018-07-01T07:24:48.340Z,19.26
2018-07-01T07:25:48.361Z,19.42
2018-07-01T07:26:48.387Z,19.48
2018-07-01T07:27:48.434Z,19.37
2018-07-01T07:28:48.445Z,19.35
2018-07-01T07:30:09.497Z,19.38
2018-07-01T07:30:48.605Z,19.55
2018-07-01T07:31:48.535Z,19.59
2018-07-01T07:32:48.587Z,19.55
2018-07-01T07:33:48.597Z,19.47
2018-07-01T07:34:48.627Z,19.34
2018-07-01T07:36:09.684Z,19.30
2018-07-01T07:36:48.683Z,19.35
2018-07-01T07:37:48.710Z,19.57
2018-07-01T07:38:48.725Z,19.64
2018-07-01T07:39:48.781Z,19.75
2018-07-01T07:40:48.775Z,19.66
2018-07-01T07:42:09.834Z,19.74
2018-07-01T07:42:48.850Z,19.89
2018-07-01T07:43:48.882Z,19.96
2018-07-01T07:44:48.967Z,20.10
2018-07-01T07:45:48.915Z,20.18
2018-07-01T07:46:48.955Z,20.15
2018-07-01T07:48:10.011Z,20.19
2018-07-01T07:48:49.011Z,20.17
2018-07-01T07:49:49.036Z,20.00
2018-07-01T07:50:49.059Z,20.02
2018-07-01T07:51:49.085Z,20.19
2018-07-01T07:52:49.123Z,20.10
2018-07-01T07:54:10.177Z,20.21
2018-07-01T07:54:49.185Z,20.32
2018-07-01T07:55:49.232Z,20.34
2018-07-01T07:56:49.230Z,20.33
2018-07-01T07:57:49.256Z,20.37
2018-07-01T07:58:49.284Z,20.56
2018-07-01T08:00:10.331Z,20.67
2018-07-01T08:00:49.348Z,20.67
2018-07-01T08:01:49.375Z,20.74
2018-07-01T08:02:49.395Z,20.73
2018-07-01T08:03:49.424Z,20.86
2018-07-01T08:04:49.452Z,20.89
2018-07-01T08:06:10.511Z,21.01
2018-07-01T08:06:49.507Z,20.96
2018-07-01T08:07:49.538Z,21.00
2018-07-01T08:08:49.574Z,21.00
2018-07-01T08:09:49.608Z,20.96
2018-07-01T08:10:49.633Z,21.10
2018-07-01T08:12:11.627Z,21.10
2018-07-01T08:12:49.702Z,21.10
2018-07-01T08:13:49.800Z,21.07
2018-07-01T08:14:49.787Z,21.08
2018-07-01T08:15:49.774Z,20.98
2018-07-01T08:16:49.795Z,20.85
2018-07-01T08:18:10.848Z,20.82
2018-07-01T08:18:49.860Z,20.89
2018-07-01T08:19:49.876Z,20.86
2018-07-01T08:20:50.059Z,20.93
2018-07-01T08:21:49.985Z,20.96
2018-07-01T08:22:49.965Z,21.04
2018-07-01T08:24:11.064Z,21.13
2018-07-01T08:24:50.027Z,21.29
2018-07-01T08:25:50.047Z,21.26
2018-07-01T08:26:50.081Z,21.37
2018-07-01T08:27:50.106Z,21.51
2018-07-01T08:28:50.140Z,21.54
2018-07-01T08:30:11.188Z,21.54
2018-07-01T08:30:50.209Z,21.22
2018-07-01T08:31:50.214Z,21.22
2018-07-01T08:32:51.096Z,21.07
2018-07-01T08:33:50.282Z,21.04
2018-07-01T08:34:50.328Z,20.90
2018-07-01T08:36:11.358Z,20.82
2018-07-01T08:36:50.386Z,20.74
2018-07-01T08:37:50.412Z,21.00
2018-07-01T08:38:50.414Z,21.11
2018-07-01T08:39:50.445Z,21.17
2018-07-01T08:40:50.491Z,21.15
2018-07-01T08:42:11.537Z,21.17
2018-07-01T08:42:50.540Z,21.19
2018-07-01T08:43:51.101Z,21.15
2018-07-01T08:44:50.609Z,21.19
2018-07-01T08:45:50.619Z,21.19
2018-07-01T08:46:50.648Z,21.13
2018-07-01T08:48:11.719Z,20.96
2018-07-01T08:48:50.725Z,20.85
2018-07-01T08:49:50.730Z,20.64
2018-07-01T08:50:50.774Z,20.58
2018-07-01T08:51:50.794Z,20.55
2018-07-01T08:52:50.944Z,20.52
2018-07-01T08:54:11.896Z,20.66
2018-07-01T08:54:50.896Z,20.75
2018-07-01T08:55:50.929Z,20.92
2018-07-01T08:56:50.935Z,21.07
2018-07-01T08:57:50.962Z,20.98
2018-07-01T08:58:50.992Z,20.96
2018-07-01T09:00:12.052Z,20.83
2018-07-01T09:00:51.062Z,20.75
2018-07-01T09:01:51.076Z,20.74
2018-07-01T09:02:51.112Z,20.75
2018-07-01T09:03:51.153Z,20.83
2018-07-01T09:04:51.163Z,20.98
2018-07-01T09:06:12.204Z,21.08
2018-07-01T09:06:51.227Z,21.17
2018-07-01T09:07:51.265Z,21.33
2018-07-01T09:08:51.373Z,21.43
2018-07-01T09:09:51.306Z,21.59
2018-07-01T09:10:51.336Z,21.69
2018-07-01T09:12:12.382Z,21.84
2018-07-01T09:12:51.409Z,21.84
2018-07-01T09:13:51.427Z,21.83
2018-07-01T09:14:51.464Z,21.83
2018-07-01T09:15:51.470Z,21.94
2018-07-01T09:16:51.529Z,22.12
2018-07-01T09:18:12.564Z,22.21
2018-07-01T09:18:51.580Z,22.31
2018-07-01T09:19:51.593Z,22.44
2018-07-01T09:20:51.621Z,22.47
2018-07-01T09:21:51.656Z,22.59
2018-07-01T09:22:51.674Z,22.55
2018-07-01T09:24:12.725Z,22.52
2018-07-01T09:24:51.739Z,22.28
2018-07-01T09:25:51.776Z,22.23
2018-07-01T09:26:51.803Z,22.37
2018-07-01T09:27:51.830Z,22.19
2018-07-01T09:28:51.914Z,22.19
2018-07-01T09:30:12.901Z,22.04
2018-07-01T09:30:51.918Z,22.04
2018-07-01T09:31:51.956Z,22.15
2018-07-01T09:32:51.977Z,22.38
2018-07-01T09:33:52.001Z,22.70
2018-07-01T09:34:52.039Z,22.84
2018-07-01T09:36:13.149Z,22.93
2018-07-01T09:36:52.084Z,23.23
2018-07-01T09:37:52.132Z,23.28
2018-07-01T09:38:52.166Z,23.18
2018-07-01T09:39:52.165Z,22.98
2018-07-01T09:40:52.198Z,22.96
2018-07-01T09:42:13.253Z,23.10
2018-07-01T09:42:52.311Z,23.26
2018-07-01T09:43:52.300Z,23.52
2018-07-01T09:44:52.326Z,23.32
2018-07-01T09:45:52.414Z,23.44
2018-07-01T09:46:52.369Z,23.73
2018-07-01T09:48:13.415Z,23.73
2018-07-01T09:48:52.438Z,23.92
2018-07-01T09:49:52.474Z,24.01
2018-07-01T09:50:52.487Z,24.03
2018-07-01T09:51:52.553Z,24.19
2018-07-01T09:52:52.565Z,24.28
2018-07-01T09:54:13.591Z,24.22
2018-07-01T09:54:52.750Z,23.99
2018-07-01T09:55:52.935Z,23.77
2018-07-01T09:56:52.735Z,23.40
2018-07-01T09:57:52.704Z,23.29
2018-07-01T09:58:52.725Z,23.11
2018-07-01T10:00:13.804Z,23.11
2018-07-01T10:00:52.780Z,23.32
2018-07-01T10:01:52.809Z,23.88
2018-07-01T10:02:52.851Z,24.25
2018-07-01T10:03:52.876Z,24.71
2018-07-01T10:04:52.902Z,25.25
2018-07-01T10:06:13.965Z,25.55
2018-07-01T10:06:52.961Z,25.71
2018-07-01T10:07:53.028Z,25.54
2018-07-01T10:08:53.077Z,26.04
2018-07-01T10:09:53.045Z,26.36
2018-07-01T10:10:53.074Z,25.99
2018-07-01T10:12:14.132Z,25.49
2018-07-01T10:12:53.131Z,25.43
2018-07-01T10:13:53.168Z,25.85
2018-07-01T10:14:53.214Z,26.39
2018-07-01T10:15:53.218Z,26.92
2018-07-01T10:16:53.268Z,26.64
2018-07-01T10:18:14.314Z,26.15
2018-07-01T10:18:53.345Z,25.70
2018-07-01T10:19:53.351Z,25.19
2018-07-01T10:20:53.370Z,24.78
2018-07-01T10:21:53.400Z,24.81
2018-07-01T10:22:53.441Z,25.16
2018-07-01T10:24:14.493Z,25.59
2018-07-01T10:24:53.484Z,25.67
2018-07-01T10:25:53.517Z,25.86
2018-07-01T10:26:53.559Z,26.16
2018-07-01T10:27:53.600Z,26.10
2018-07-01T10:28:53.616Z,25.70
2018-07-01T10:30:14.665Z,25.88
2018-07-01T10:30:53.677Z,25.85
2018-07-01T10:31:53.706Z,25.51
2018-07-01T10:32:53.737Z,25.67
2018-07-01T10:33:53.767Z,25.85
2018-07-01T10:34:53.794Z,26.19
2018-07-01T10:36:14.906Z,25.88
2018-07-01T10:36:53.848Z,25.43
2018-07-01T10:37:53.878Z,25.21
2018-07-01T10:38:53.922Z,25.43
2018-07-01T10:39:53.942Z,26.16
2018-07-01T10:40:53.976Z,26.74
2018-07-01T10:42:15.051Z,27.55
2018-07-01T10:42:54.040Z,27.95
2018-07-01T10:43:54.091Z,28.75
2018-07-01T10:44:54.090Z,29.12
2018-07-01T10:45:54.246Z,29.27
2018-07-01T10:46:54.246Z,28.64
2018-07-01T10:48:15.206Z,28.45
2018-07-01T10:48:54.245Z,27.53
2018-07-01T10:49:54.243Z,27.05
2018-07-01T10:50:54.272Z,26.46
2018-07-01T10:51:54.333Z,25.89
2018-07-01T10:52:54.338Z,25.83
2018-07-01T10:54:15.386Z,26.61
2018-07-01T10:54:54.506Z,26.52
2018-07-01T10:55:54.419Z,26.16
2018-07-01T10:56:54.565Z,25.71
2018-07-01T10:57:54.484Z,25.21
2018-07-01T10:58:54.529Z,24.77
2018-07-01T11:00:15.599Z,25.43
2018-07-01T11:00:54.574Z,26.91
2018-07-01T11:01:54.617Z,26.82
2018-07-01T11:02:54.647Z,27.03
2018-07-01T11:03:54.690Z,27.79
2018-07-01T11:04:54.718Z,27.61
2018-07-01T11:06:16.002Z,27.90
2018-07-01T11:06:54.775Z,28.50
2018-07-01T11:07:54.801Z,28.12
2018-07-01T11:08:54.851Z,28.41
2018-07-01T11:09:54.859Z,29.57
2018-07-01T11:10:54.889Z,30.56
2018-07-01T11:12:15.948Z,30.95
2018-07-01T11:12:54.955Z,31.00
2018-07-01T11:13:54.984Z,29.59
2018-07-01T11:14:55.031Z,28.94
2018-07-01T11:15:55.059Z,28.23
2018-07-01T11:16:55.084Z,29.03
2018-07-01T11:18:16.132Z,29.49
2018-07-01T11:18:55.143Z,29.98
2018-07-01T11:19:55.174Z,30.96
2018-07-01T11:20:55.197Z,31.77
2018-07-01T11:21:55.234Z,31.79
2018-07-01T11:22:55.275Z,31.50
2018-07-01T11:24:16.384Z,31.50
2018-07-01T11:24:55.352Z,31.00
2018-07-01T11:25:55.381Z,29.90
2018-07-01T11:26:55.581Z,29.16
2018-07-01T11:27:55.513Z,28.72
2018-07-01T11:28:55.468Z,28.40
2018-07-01T11:30:16.523Z,28.12
2018-07-01T11:30:55.532Z,28.08
2018-07-01T11:31:55.548Z,27.79
2018-07-01T11:32:55.599Z,27.19
2018-07-01T11:33:55.636Z,26.86
2018-07-01T11:34:55.689Z,26.68
2018-07-01T11:36:16.715Z,26.37
2018-07-01T11:36:55.724Z,25.96
2018-07-01T11:37:55.752Z,25.89
2018-07-01T11:38:55.778Z,25.77
2018-07-01T11:39:55.815Z,25.74
2018-07-01T11:40:55.847Z,25.74
2018-07-01T11:42:16.884Z,25.61
2018-07-01T11:42:55.916Z,25.46
2018-07-01T11:43:55.929Z,25.51
2018-07-01T11:44:55.975Z,25.39
2018-07-01T11:45:55.987Z,25.11
2018-07-01T11:46:56.037Z,25.16
2018-07-01T11:48:17.087Z,25.16
2018-07-01T11:48:56.102Z,25.07
2018-07-01T11:49:56.132Z,24.97
2018-07-01T11:50:56.151Z,24.66
2018-07-01T11:51:56.180Z,24.43
2018-07-01T11:52:56.232Z,24.41
2018-07-01T11:54:17.321Z,24.29
2018-07-01T11:54:56.385Z,24.26
2018-07-01T11:55:56.325Z,24.25
2018-07-01T11:56:56.333Z,24.21
2018-07-01T11:57:56.354Z,24.00
2018-07-01T11:58:56.404Z,24.00
2018-07-01T12:00:17.524Z,23.91
2018-07-01T12:00:56.461Z,23.74
2018-07-01T12:01:56.579Z,23.63
2018-07-01T12:02:56.525Z,23.51
2018-07-01T12:03:56.565Z,23.42
2018-07-01T12:05:16.205Z,23.49
2018-07-01T12:06:17.641Z,23.42
2018-07-01T12:06:56.658Z,23.18
2018-07-01T12:07:56.664Z,23.36
2018-07-01T12:08:56.725Z,23.39
2018-07-01T12:09:56.718Z,23.45
2018-07-01T12:10:56.757Z,23.48
2018-07-01T12:12:17.829Z,23.47
2018-07-01T12:12:56.843Z,23.62
2018-07-01T12:13:56.884Z,23.70
2018-07-01T12:14:56.929Z,23.77
2018-07-01T12:15:56.938Z,23.62
2018-07-01T12:16:56.935Z,23.55
2018-07-01T12:18:17.990Z,23.47
2018-07-01T12:18:57.000Z,23.33
2018-07-01T12:19:57.038Z,23.29
2018-07-01T12:20:57.072Z,23.14
2018-07-01T12:21:57.116Z,23.10
2018-07-01T12:22:57.119Z,23.16
2018-07-01T12:24:18.169Z,23.26
2018-07-01T12:24:57.174Z,23.14
2018-07-01T12:25:57.222Z,23.18
2018-07-01T12:26:57.245Z,23.13
2018-07-01T12:27:57.296Z,22.96
2018-07-01T12:28:57.345Z,22.96
2018-07-01T12:30:18.359Z,23.01
2018-07-01T12:30:57.424Z,22.99
2018-07-01T12:31:57.391Z,23.02
2018-07-01T12:32:57.421Z,23.10
2018-07-01T12:33:57.614Z,23.11
2018-07-01T12:34:57.480Z,23.07
2018-07-01T12:36:18.544Z,22.81
2018-07-01T12:36:57.546Z,22.86
2018-07-01T12:37:57.577Z,22.86
2018-07-01T12:38:57.619Z,22.81
2018-07-01T12:39:57.629Z,22.92
2018-07-01T12:40:57.658Z,22.98
2018-07-01T12:42:18.788Z,23.01
2018-07-01T12:42:57.731Z,23.07
2018-07-01T12:43:57.748Z,23.17
2018-07-01T12:44:57.780Z,23.26
2018-07-01T12:45:57.807Z,23.16
2018-07-01T12:46:57.837Z,23.21
2018-07-01T12:48:18.883Z,23.14
2018-07-01T12:48:57.893Z,23.14
2018-07-01T12:49:57.946Z,23.18
2018-07-01T12:50:57.959Z,23.17
2018-07-01T12:51:59.437Z,23.08
2018-07-01T12:52:58.012Z,22.99